sensor_id;sensor_type;location;lat;lon;timestamp;temperature;humidity
24744;DHT22;12844;52.110;5.548;2023-03-01T00:00:27;17.70;52.10
24744;DHT22;12844;52.110;5.548;2023-03-01T00:02:52;17.60;52.00
24744;DHT22;12844;52.110;5.548;2023-03-01T00:05:18;17.60;52.10
24744;DHT22;12844;52.110;5.548;2023-03-01T00:07:43;17.60;52.10
24744;DHT22;12844;52.110;5.548;2023-03-01T00:10:10;17.60;52.10
24744;DHT22;12844;52.110;5.548;2023-03-01T00:12:35;17.60;52.50
24744;DHT22;12844;52.110;5.548;2023-03-01T00:15:02;17.60;52.00
24744;DHT22;12844;52.110;5.548;2023-03-01T00:17:29;17.60;52.10
24744;DHT22;12844;52.110;5.548;2023-03-01T00:19:54;17.60;52.10
24744;DHT22;12844;52.110;5.548;2023-03-01T00:22:20;17.60;52.10
24744;DHT22;12844;52.110;5.548;2023-03-01T00:24:45;17.60;52.10
24744;DHT22;12844;52.110;5.548;2023-03-01T00:27:11;17.50;52.70
24744;DHT22;12844;52.110;5.548;2023-03-01T00:29:36;17.50;52.10
24744;DHT22;12844;52.110;5.548;2023-03-01T00:32:02;17.60;52.10
24744;DHT22;12844;52.110;5.548;2023-03-01T00:34:27;17.50;52.10
24744;DHT22;12844;52.110;5.548;2023-03-01T00:36:53;17.50;52.00
24744;DHT22;12844;52.110;5.548;2023-03-01T00:39:18;17.50;52.00
24744;DHT22;12844;52.110;5.548;2023-03-01T00:41:44;17.50;52.10
24744;DHT22;12844;52.110;5.548;2023-03-01T00:44:10;17.50;52.10
24744;DHT22;12844;52.110;5.548;2023-03-01T00:46:36;17.50;52.00
24744;DHT22;12844;52.110;5.548;2023-03-01T00:49:02;17.50;52.10
24744;DHT22;12844;52.110;5.548;2023-03-01T00:51:28;17.40;52.00
24744;DHT22;12844;52.110;5.548;2023-03-01T00:53:56;17.50;52.00
24744;DHT22;12844;52.110;5.548;2023-03-01T00:56:22;17.50;52.00
24744;DHT22;12844;52.110;5.548;2023-03-01T00:58:48;17.50;52.00
24744;DHT22;12844;52.110;5.548;2023-03-01T01:01:20;17.40;52.00
24744;DHT22;12844;52.110;5.548;2023-03-01T01:03:58;17.50;52.10
24744;DHT22;12844;52.110;5.548;2023-03-01T01:06:27;17.40;52.00
24744;DHT22;12844;52.110;5.548;2023-03-01T01:08:54;17.40;52.00
24744;DHT22;12844;52.110;5.548;2023-03-01T01:11:22;17.40;52.10
24744;DHT22;12844;52.110;5.548;2023-03-01T01:13:48;17.40;52.10
24744;DHT22;12844;52.110;5.548;2023-03-01T01:16:15;17.40;52.10
24744;DHT22;12844;52.110;5.548;2023-03-01T01:18:41;17.40;52.10
24744;DHT22;12844;52.110;5.548;2023-03-01T01:31:28;17.30;51.20
24744;DHT22;12844;52.110;5.548;2023-03-01T01:33:55;17.20;51.00
24744;DHT22;12844;52.110;5.548;2023-03-01T01:36:21;17.20;50.90
24744;DHT22;12844;52.110;5.548;2023-03-01T01:38:47;17.20;50.90
24744;DHT22;12844;52.110;5.548;2023-03-01T01:41:14;17.20;50.80
24744;DHT22;12844;52.110;5.548;2023-03-01T01:43:41;17.20;50.80
24744;DHT22;12844;52.110;5.548;2023-03-01T01:46:30;17.20;50.80
24744;DHT22;12844;52.110;5.548;2023-03-01T01:49:03;17.30;50.90
24744;DHT22;12844;52.110;5.548;2023-03-01T01:54:10;17.20;51.10
24744;DHT22;12844;52.110;5.548;2023-03-01T01:56:38;17.20;51.00
24744;DHT22;12844;52.110;5.548;2023-03-01T01:59:06;17.20;51.10
24744;DHT22;12844;52.110;5.548;2023-03-01T02:01:31;17.20;51.20
24744;DHT22;12844;52.110;5.548;2023-03-01T02:03:57;17.10;51.30
24744;DHT22;12844;52.110;5.548;2023-03-01T02:06:43;17.20;51.20
24744;DHT22;12844;52.110;5.548;2023-03-01T02:09:14;17.20;51.30
24744;DHT22;12844;52.110;5.548;2023-03-01T02:11:41;17.10;51.30
24744;DHT22;12844;52.110;5.548;2023-03-01T02:14:06;17.10;51.30
24744;DHT22;12844;52.110;5.548;2023-03-01T02:16:32;17.10;51.00
24744;DHT22;12844;52.110;5.548;2023-03-01T02:18:58;17.10;51.00
24744;DHT22;12844;52.110;5.548;2023-03-01T02:24:39;17.10;51.10
24744;DHT22;12844;52.110;5.548;2023-03-01T02:27:06;17.00;51.10
24744;DHT22;12844;52.110;5.548;2023-03-01T02:29:32;17.10;51.00
24744;DHT22;12844;52.110;5.548;2023-03-01T02:32:00;17.00;50.70
24744;DHT22;12844;52.110;5.548;2023-03-01T02:34:27;17.00;50.70
24744;DHT22;12844;52.110;5.548;2023-03-01T02:37:02;17.00;50.60
24744;DHT22;12844;52.110;5.548;2023-03-01T02:39:40;17.00;50.60
24744;DHT22;12844;52.110;5.548;2023-03-01T02:42:13;17.00;50.60
24744;DHT22;12844;52.110;5.548;2023-03-01T02:44:40;17.00;50.50
24744;DHT22;12844;52.110;5.548;2023-03-01T02:47:06;16.90;50.50
24744;DHT22;12844;52.110;5.548;2023-03-01T02:49:34;16.90;50.50
24744;DHT22;12844;52.110;5.548;2023-03-01T02:54:40;16.90;50.50
24744;DHT22;12844;52.110;5.548;2023-03-01T02:57:08;16.90;50.40
24744;DHT22;12844;52.110;5.548;2023-03-01T02:59:35;16.90;50.40
24744;DHT22;12844;52.110;5.548;2023-03-01T03:02:05;16.90;50.30
24744;DHT22;12844;52.110;5.548;2023-03-01T03:04:31;16.90;50.40
24744;DHT22;12844;52.110;5.548;2023-03-01T03:06:57;16.90;50.40
24744;DHT22;12844;52.110;5.548;2023-03-01T03:09:23;16.90;50.40
24744;DHT22;12844;52.110;5.548;2023-03-01T03:11:49;16.80;50.40
24744;DHT22;12844;52.110;5.548;2023-03-01T03:14:16;16.90;50.30
24744;DHT22;12844;52.110;5.548;2023-03-01T03:16:43;16.80;50.40
24744;DHT22;12844;52.110;5.548;2023-03-01T03:19:10;16.80;50.30
24744;DHT22;12844;52.110;5.548;2023-03-01T03:21:36;16.80;50.30
24744;DHT22;12844;52.110;5.548;2023-03-01T03:24:02;16.80;50.30
24744;DHT22;12844;52.110;5.548;2023-03-01T03:26:28;16.80;50.30
24744;DHT22;12844;52.110;5.548;2023-03-01T03:28:54;16.80;50.20
24744;DHT22;12844;52.110;5.548;2023-03-01T03:31:19;16.80;50.20
24744;DHT22;12844;52.110;5.548;2023-03-01T03:33:45;16.80;50.30
24744;DHT22;12844;52.110;5.548;2023-03-01T03:36:16;16.80;50.20
24744;DHT22;12844;52.110;5.548;2023-03-01T03:38:43;16.80;50.20
24744;DHT22;12844;52.110;5.548;2023-03-01T03:41:09;16.80;50.10
24744;DHT22;12844;52.110;5.548;2023-03-01T03:43:37;16.80;50.30
24744;DHT22;12844;52.110;5.548;2023-03-01T03:46:03;16.80;50.20
24744;DHT22;12844;52.110;5.548;2023-03-01T03:48:43;16.70;50.20
24744;DHT22;12844;52.110;5.548;2023-03-01T03:51:17;16.80;50.20
24744;DHT22;12844;52.110;5.548;2023-03-01T03:53:43;16.70;50.20
24744;DHT22;12844;52.110;5.548;2023-03-01T03:56:09;16.70;50.20
24744;DHT22;12844;52.110;5.548;2023-03-01T03:58:35;16.70;50.10
24744;DHT22;12844;52.110;5.548;2023-03-01T04:01:01;16.70;50.10
24744;DHT22;12844;52.110;5.548;2023-03-01T04:03:28;16.70;50.10
24744;DHT22;12844;52.110;5.548;2023-03-01T04:06:00;16.70;50.10
24744;DHT22;12844;52.110;5.548;2023-03-01T04:08:26;16.70;50.10
24744;DHT22;12844;52.110;5.548;2023-03-01T04:10:57;16.70;50.20
24744;DHT22;12844;52.110;5.548;2023-03-01T04:13:24;16.70;50.10
24744;DHT22;12844;52.110;5.548;2023-03-01T04:15:51;16.70;50.10
24744;DHT22;12844;52.110;5.548;2023-03-01T04:18:18;16.70;50.00
24744;DHT22;12844;52.110;5.548;2023-03-01T04:20:45;16.70;50.00
24744;DHT22;12844;52.110;5.548;2023-03-01T04:23:14;16.70;50.10
24744;DHT22;12844;52.110;5.548;2023-03-01T04:25:50;16.70;50.10
24744;DHT22;12844;52.110;5.548;2023-03-01T04:28:24;16.70;50.10
24744;DHT22;12844;52.110;5.548;2023-03-01T04:30:54;16.70;50.10
24744;DHT22;12844;52.110;5.548;2023-03-01T04:33:20;16.60;50.10
24744;DHT22;12844;52.110;5.548;2023-03-01T04:35:45;16.60;50.00
24744;DHT22;12844;52.110;5.548;2023-03-01T04:38:15;16.60;50.00
24744;DHT22;12844;52.110;5.548;2023-03-01T04:40:40;16.60;49.90
24744;DHT22;12844;52.110;5.548;2023-03-01T04:43:10;16.60;50.00
24744;DHT22;12844;52.110;5.548;2023-03-01T04:45:36;16.60;49.90
24744;DHT22;12844;52.110;5.548;2023-03-01T04:48:03;16.60;50.00
24744;DHT22;12844;52.110;5.548;2023-03-01T04:50:28;16.60;50.00
24744;DHT22;12844;52.110;5.548;2023-03-01T04:52:54;16.60;49.90
24744;DHT22;12844;52.110;5.548;2023-03-01T04:55:24;16.60;49.90
24744;DHT22;12844;52.110;5.548;2023-03-01T04:57:51;16.60;49.90
24744;DHT22;12844;52.110;5.548;2023-03-01T05:00:17;16.50;49.90
24744;DHT22;12844;52.110;5.548;2023-03-01T05:02:56;16.60;49.90
24744;DHT22;12844;52.110;5.548;2023-03-01T05:05:25;16.60;49.90
24744;DHT22;12844;52.110;5.548;2023-03-01T05:07:56;16.60;49.80
24744;DHT22;12844;52.110;5.548;2023-03-01T05:10:23;16.60;49.90
24744;DHT22;12844;52.110;5.548;2023-03-01T05:12:48;16.50;49.90
24744;DHT22;12844;52.110;5.548;2023-03-01T05:15:14;16.50;49.80
24744;DHT22;12844;52.110;5.548;2023-03-01T05:17:40;16.50;49.80
24744;DHT22;12844;52.110;5.548;2023-03-01T05:20:06;16.50;49.80
24744;DHT22;12844;52.110;5.548;2023-03-01T05:22:34;16.50;49.80
24744;DHT22;12844;52.110;5.548;2023-03-01T05:25:00;16.50;49.80
24744;DHT22;12844;52.110;5.548;2023-03-01T05:27:25;16.50;49.70
24744;DHT22;12844;52.110;5.548;2023-03-01T05:29:51;16.50;49.50
24744;DHT22;12844;52.110;5.548;2023-03-01T05:32:16;16.50;49.70
24744;DHT22;12844;52.110;5.548;2023-03-01T05:34:42;16.50;49.70
24744;DHT22;12844;52.110;5.548;2023-03-01T05:37:08;16.50;49.60
24744;DHT22;12844;52.110;5.548;2023-03-01T05:39:34;16.50;49.60
24744;DHT22;12844;52.110;5.548;2023-03-01T05:42:00;16.50;49.60
24744;DHT22;12844;52.110;5.548;2023-03-01T05:44:27;16.50;49.70
24744;DHT22;12844;52.110;5.548;2023-03-01T05:46:54;16.50;49.60
24744;DHT22;12844;52.110;5.548;2023-03-01T05:49:20;16.50;49.60
24744;DHT22;12844;52.110;5.548;2023-03-01T05:51:50;16.50;49.60
24744;DHT22;12844;52.110;5.548;2023-03-01T05:54:16;16.40;50.20
24744;DHT22;12844;52.110;5.548;2023-03-01T05:56:42;16.40;49.50
24744;DHT22;12844;52.110;5.548;2023-03-01T05:59:08;16.40;49.60
24744;DHT22;12844;52.110;5.548;2023-03-01T06:01:34;16.40;49.50
24744;DHT22;12844;52.110;5.548;2023-03-01T06:04:00;16.40;49.50
24744;DHT22;12844;52.110;5.548;2023-03-01T06:06:26;16.40;49.60
24744;DHT22;12844;52.110;5.548;2023-03-01T06:08:52;16.40;49.50
24744;DHT22;12844;52.110;5.548;2023-03-01T06:11:19;16.40;49.60
24744;DHT22;12844;52.110;5.548;2023-03-01T06:13:45;16.40;49.60
24744;DHT22;12844;52.110;5.548;2023-03-01T06:16:12;16.40;49.70
24744;DHT22;12844;52.110;5.548;2023-03-01T06:18:38;16.40;49.60
24744;DHT22;12844;52.110;5.548;2023-03-01T06:21:05;16.40;49.50
24744;DHT22;12844;52.110;5.548;2023-03-01T06:23:30;16.40;49.50
24744;DHT22;12844;52.110;5.548;2023-03-01T06:25:56;16.40;49.50
24744;DHT22;12844;52.110;5.548;2023-03-01T06:28:21;16.30;49.60
24744;DHT22;12844;52.110;5.548;2023-03-01T06:30:47;16.30;49.60
24744;DHT22;12844;52.110;5.548;2023-03-01T06:33:13;16.30;49.60
24744;DHT22;12844;52.110;5.548;2023-03-01T06:35:39;16.30;49.60
24744;DHT22;12844;52.110;5.548;2023-03-01T06:38:05;16.30;49.50
24744;DHT22;12844;52.110;5.548;2023-03-01T06:40:31;16.30;49.60
24744;DHT22;12844;52.110;5.548;2023-03-01T06:42:57;16.30;49.50
24744;DHT22;12844;52.110;5.548;2023-03-01T06:45:23;16.30;49.40
24744;DHT22;12844;52.110;5.548;2023-03-01T06:47:50;16.30;49.60
24744;DHT22;12844;52.110;5.548;2023-03-01T06:50:16;16.30;49.60
24744;DHT22;12844;52.110;5.548;2023-03-01T06:52:42;16.30;49.60
24744;DHT22;12844;52.110;5.548;2023-03-01T06:55:10;16.30;49.50
24744;DHT22;12844;52.110;5.548;2023-03-01T06:57:36;16.30;49.50
24744;DHT22;12844;52.110;5.548;2023-03-01T07:00:03;16.30;49.60
24744;DHT22;12844;52.110;5.548;2023-03-01T07:02:29;16.30;49.50
24744;DHT22;12844;52.110;5.548;2023-03-01T07:04:54;16.30;49.50
24744;DHT22;12844;52.110;5.548;2023-03-01T07:07:20;16.30;49.50
24744;DHT22;12844;52.110;5.548;2023-03-01T07:09:46;16.20;50.10
24744;DHT22;12844;52.110;5.548;2023-03-01T07:12:11;15.90;51.50
24744;DHT22;12844;52.110;5.548;2023-03-01T07:14:37;15.50;52.30
24744;DHT22;12844;52.110;5.548;2023-03-01T07:17:02;15.40;53.20
24744;DHT22;12844;52.110;5.548;2023-03-01T07:19:28;15.30;53.60
24744;DHT22;12844;52.110;5.548;2023-03-01T07:21:53;15.40;53.90
24744;DHT22;12844;52.110;5.548;2023-03-01T07:24:21;15.30;54.20
24744;DHT22;12844;52.110;5.548;2023-03-01T07:26:50;15.40;54.60
24744;DHT22;12844;52.110;5.548;2023-03-01T07:29:17;15.50;55.00
24744;DHT22;12844;52.110;5.548;2023-03-01T07:31:43;15.50;55.10
24744;DHT22;12844;52.110;5.548;2023-03-01T07:34:08;15.60;55.40
24744;DHT22;12844;52.110;5.548;2023-03-01T07:36:34;15.60;55.40
24744;DHT22;12844;52.110;5.548;2023-03-01T07:38:59;15.70;55.30
24744;DHT22;12844;52.110;5.548;2023-03-01T07:41:27;15.80;55.30
24744;DHT22;12844;52.110;5.548;2023-03-01T07:43:53;15.80;55.10
24744;DHT22;12844;52.110;5.548;2023-03-01T07:46:18;15.90;55.00
24744;DHT22;12844;52.110;5.548;2023-03-01T07:48:44;16.00;54.90
24744;DHT22;12844;52.110;5.548;2023-03-01T07:51:10;16.20;54.50
24744;DHT22;12844;52.110;5.548;2023-03-01T07:53:36;16.30;53.90
24744;DHT22;12844;52.110;5.548;2023-03-01T07:56:10;16.40;53.70
24744;DHT22;12844;52.110;5.548;2023-03-01T07:58:37;16.60;53.30
24744;DHT22;12844;52.110;5.548;2023-03-01T08:01:05;16.70;53.20
24744;DHT22;12844;52.110;5.548;2023-03-01T08:03:31;16.80;53.00
24744;DHT22;12844;52.110;5.548;2023-03-01T08:06:00;16.90;52.90
24744;DHT22;12844;52.110;5.548;2023-03-01T08:08:26;17.20;52.60
24744;DHT22;12844;52.110;5.548;2023-03-01T08:10:52;17.30;52.60
24744;DHT22;12844;52.110;5.548;2023-03-01T08:13:17;17.60;52.10
24744;DHT22;12844;52.110;5.548;2023-03-01T08:15:48;17.80;51.70
24744;DHT22;12844;52.110;5.548;2023-03-01T08:18:14;17.90;51.60
24744;DHT22;12844;52.110;5.548;2023-03-01T08:20:40;18.00;51.40
24744;DHT22;12844;52.110;5.548;2023-03-01T08:23:05;18.00;51.30
24744;DHT22;12844;52.110;5.548;2023-03-01T08:25:31;18.10;51.20
24744;DHT22;12844;52.110;5.548;2023-03-01T08:27:56;18.10;51.20
24744;DHT22;12844;52.110;5.548;2023-03-01T08:30:22;18.10;51.50
24744;DHT22;12844;52.110;5.548;2023-03-01T08:32:49;18.10;51.30
24744;DHT22;12844;52.110;5.548;2023-03-01T08:35:14;18.20;51.40
24744;DHT22;12844;52.110;5.548;2023-03-01T08:37:40;18.20;51.40
24744;DHT22;12844;52.110;5.548;2023-03-01T08:40:06;18.20;51.40
24744;DHT22;12844;52.110;5.548;2023-03-01T08:42:32;18.30;52.00
24744;DHT22;12844;52.110;5.548;2023-03-01T08:44:58;18.30;51.50
24744;DHT22;12844;52.110;5.548;2023-03-01T08:47:23;18.20;51.40
24744;DHT22;12844;52.110;5.548;2023-03-01T08:49:50;18.30;51.50
24744;DHT22;12844;52.110;5.548;2023-03-01T08:52:16;18.30;51.70
24744;DHT22;12844;52.110;5.548;2023-03-01T08:54:41;18.40;51.40
24744;DHT22;12844;52.110;5.548;2023-03-01T08:57:07;18.40;51.30
24744;DHT22;12844;52.110;5.548;2023-03-01T08:59:34;18.40;51.40
24744;DHT22;12844;52.110;5.548;2023-03-01T09:02:03;18.20;50.90
24744;DHT22;12844;52.110;5.548;2023-03-01T09:04:29;18.20;51.40
24744;DHT22;12844;52.110;5.548;2023-03-01T09:06:55;18.10;51.60
24744;DHT22;12844;52.110;5.548;2023-03-01T09:09:20;18.10;51.60
24744;DHT22;12844;52.110;5.548;2023-03-01T09:11:46;18.10;51.60
24744;DHT22;12844;52.110;5.548;2023-03-01T09:14:13;18.10;51.60
24744;DHT22;12844;52.110;5.548;2023-03-01T09:16:38;18.10;51.60
24744;DHT22;12844;52.110;5.548;2023-03-01T09:19:05;18.10;51.60
24744;DHT22;12844;52.110;5.548;2023-03-01T09:21:30;18.10;51.60
24744;DHT22;12844;52.110;5.548;2023-03-01T09:23:57;18.10;51.60
24744;DHT22;12844;52.110;5.548;2023-03-01T09:26:24;18.10;51.60
24744;DHT22;12844;52.110;5.548;2023-03-01T09:28:51;18.10;51.60
24744;DHT22;12844;52.110;5.548;2023-03-01T09:31:19;18.00;51.60
24744;DHT22;12844;52.110;5.548;2023-03-01T09:33:46;18.10;51.50
24744;DHT22;12844;52.110;5.548;2023-03-01T09:36:17;18.20;51.40
24744;DHT22;12844;52.110;5.548;2023-03-01T09:38:43;18.20;51.40
24744;DHT22;12844;52.110;5.548;2023-03-01T09:43:53;18.20;52.00
24744;DHT22;12844;52.110;5.548;2023-03-01T09:46:23;18.20;52.10
24744;DHT22;12844;52.110;5.548;2023-03-01T09:49:11;18.20;51.40
24744;DHT22;12844;52.110;5.548;2023-03-01T09:51:37;18.20;51.50
24744;DHT22;12844;52.110;5.548;2023-03-01T09:54:04;18.20;51.60
24744;DHT22;12844;52.110;5.548;2023-03-01T09:56:36;18.20;51.60
24744;DHT22;12844;52.110;5.548;2023-03-01T09:59:08;18.20;51.60
24744;DHT22;12844;52.110;5.548;2023-03-01T10:02:37;18.10;51.60
24744;DHT22;12844;52.110;5.548;2023-03-01T10:10:00;18.10;51.80
24744;DHT22;12844;52.110;5.548;2023-03-01T10:12:39;18.10;51.90
24744;DHT22;12844;52.110;5.548;2023-03-01T10:15:11;18.10;51.80
24744;DHT22;12844;52.110;5.548;2023-03-01T10:17:50;18.10;51.80
24744;DHT22;12844;52.110;5.548;2023-03-01T10:20:23;18.10;51.80
24744;DHT22;12844;52.110;5.548;2023-03-01T10:22:50;18.10;51.70
24744;DHT22;12844;52.110;5.548;2023-03-01T10:28:01;18.10;51.70
24744;DHT22;12844;52.110;5.548;2023-03-01T10:30:38;18.20;51.40
24744;DHT22;12844;52.110;5.548;2023-03-01T10:35:41;18.20;51.60
24744;DHT22;12844;52.110;5.548;2023-03-01T10:38:09;18.30;51.50
24744;DHT22;12844;52.110;5.548;2023-03-01T10:40:36;18.30;51.60
24744;DHT22;12844;52.110;5.548;2023-03-01T10:43:04;18.40;51.70
24744;DHT22;12844;52.110;5.548;2023-03-01T10:45:32;18.40;51.70
24744;DHT22;12844;52.110;5.548;2023-03-01T10:50:30;18.30;51.90
24744;DHT22;12844;52.110;5.548;2023-03-01T10:53:02;18.40;52.00
24744;DHT22;12844;52.110;5.548;2023-03-01T10:55:35;18.40;52.00
24744;DHT22;12844;52.110;5.548;2023-03-01T11:00:51;18.40;52.00
24744;DHT22;12844;52.110;5.548;2023-03-01T11:03:22;18.50;52.00
24744;DHT22;12844;52.110;5.548;2023-03-01T11:08:33;18.50;52.00
24744;DHT22;12844;52.110;5.548;2023-03-01T11:11:24;18.60;52.00
24744;DHT22;12844;52.110;5.548;2023-03-01T11:13:58;18.60;52.10
24744;DHT22;12844;52.110;5.548;2023-03-01T11:16:31;18.50;52.00
24744;DHT22;12844;52.110;5.548;2023-03-01T11:19:01;18.60;52.20
24744;DHT22;12844;52.110;5.548;2023-03-01T11:21:31;18.60;52.10
24744;DHT22;12844;52.110;5.548;2023-03-01T11:24:00;18.60;52.00
24744;DHT22;12844;52.110;5.548;2023-03-01T11:26:28;18.70;52.50
24744;DHT22;12844;52.110;5.548;2023-03-01T11:28:56;18.70;52.00
24744;DHT22;12844;52.110;5.548;2023-03-01T11:31:24;18.70;51.90
24744;DHT22;12844;52.110;5.548;2023-03-01T11:33:59;18.80;51.70
24744;DHT22;12844;52.110;5.548;2023-03-01T11:36:35;18.80;51.90
24744;DHT22;12844;52.110;5.548;2023-03-01T11:39:12;18.80;51.80
24744;DHT22;12844;52.110;5.548;2023-03-01T11:41:41;18.90;51.90
24744;DHT22;12844;52.110;5.548;2023-03-01T11:44:16;18.90;51.80
24744;DHT22;12844;52.110;5.548;2023-03-01T11:47:15;18.90;52.00
24744;DHT22;12844;52.110;5.548;2023-03-01T11:49:49;18.80;52.20
24744;DHT22;12844;52.110;5.548;2023-03-01T11:52:43;19.00;51.80
24744;DHT22;12844;52.110;5.548;2023-03-01T11:55:30;19.00;51.70
24744;DHT22;12844;52.110;5.548;2023-03-01T11:58:36;19.00;51.70
24744;DHT22;12844;52.110;5.548;2023-03-01T12:01:15;19.10;51.70
24744;DHT22;12844;52.110;5.548;2023-03-01T12:04:09;19.10;51.70
24744;DHT22;12844;52.110;5.548;2023-03-01T12:17:40;19.20;51.80
24744;DHT22;12844;52.110;5.548;2023-03-01T12:25:58;19.10;52.00
24744;DHT22;12844;52.110;5.548;2023-03-01T12:37:03;19.10;51.80
24744;DHT22;12844;52.110;5.548;2023-03-01T12:39:39;19.20;51.80
24744;DHT22;12844;52.110;5.548;2023-03-01T12:45:13;19.10;51.60
24744;DHT22;12844;52.110;5.548;2023-03-01T12:47:56;19.10;51.60
24744;DHT22;12844;52.110;5.548;2023-03-01T12:50:28;19.20;51.60
24744;DHT22;12844;52.110;5.548;2023-03-01T12:52:57;19.10;51.60
24744;DHT22;12844;52.110;5.548;2023-03-01T12:55:28;19.00;51.50
24744;DHT22;12844;52.110;5.548;2023-03-01T13:06:11;19.00;51.60
24744;DHT22;12844;52.110;5.548;2023-03-01T13:11:21;19.10;51.30
24744;DHT22;12844;52.110;5.548;2023-03-01T13:13:47;19.10;51.50
24744;DHT22;12844;52.110;5.548;2023-03-01T13:16:40;19.10;51.60
24744;DHT22;12844;52.110;5.548;2023-03-01T13:19:10;19.10;51.50
24744;DHT22;12844;52.110;5.548;2023-03-01T13:21:38;19.10;51.60
24744;DHT22;12844;52.110;5.548;2023-03-01T13:24:22;19.10;51.60
24744;DHT22;12844;52.110;5.548;2023-03-01T13:32:26;19.00;51.60
24744;DHT22;12844;52.110;5.548;2023-03-01T13:35:40;19.00;51.70
24744;DHT22;12844;52.110;5.548;2023-03-01T13:37:48;19.00;51.70
24744;DHT22;12844;52.110;5.548;2023-03-01T13:42:51;19.00;51.70
24744;DHT22;12844;52.110;5.548;2023-03-01T13:47:45;19.00;51.60
24744;DHT22;12844;52.110;5.548;2023-03-01T13:50:23;19.00;51.50
24744;DHT22;12844;52.110;5.548;2023-03-01T13:55:27;18.90;51.60
24744;DHT22;12844;52.110;5.548;2023-03-01T13:57:59;18.90;51.60
24744;DHT22;12844;52.110;5.548;2023-03-01T14:05:34;18.90;51.60
24744;DHT22;12844;52.110;5.548;2023-03-01T14:08:02;18.90;51.60
24744;DHT22;12844;52.110;5.548;2023-03-01T14:10:35;18.90;51.50
24744;DHT22;12844;52.110;5.548;2023-03-01T14:16:12;18.90;51.60
24744;DHT22;12844;52.110;5.548;2023-03-01T14:21:22;18.70;51.90
24744;DHT22;12844;52.110;5.548;2023-03-01T14:23:48;18.70;51.60
24744;DHT22;12844;52.110;5.548;2023-03-01T14:26:21;18.70;52.00
24744;DHT22;12844;52.110;5.548;2023-03-01T14:28:48;18.60;52.20
24744;DHT22;12844;52.110;5.548;2023-03-01T14:31:36;18.50;52.20
24744;DHT22;12844;52.110;5.548;2023-03-01T14:34:02;18.50;52.40
24744;DHT22;12844;52.110;5.548;2023-03-01T14:36:30;18.30;52.50
24744;DHT22;12844;52.110;5.548;2023-03-01T14:38:56;18.30;52.70
24744;DHT22;12844;52.110;5.548;2023-03-01T14:41:32;18.20;52.90
24744;DHT22;12844;52.110;5.548;2023-03-01T14:44:06;18.20;52.90
24744;DHT22;12844;52.110;5.548;2023-03-01T14:46:34;18.20;53.00
24744;DHT22;12844;52.110;5.548;2023-03-01T14:49:17;18.10;53.10
24744;DHT22;12844;52.110;5.548;2023-03-01T14:52:31;18.10;53.20
24744;DHT22;12844;52.110;5.548;2023-03-01T14:55:00;18.30;52.90
24744;DHT22;12844;52.110;5.548;2023-03-01T14:57:27;18.30;52.40
24744;DHT22;12844;52.110;5.548;2023-03-01T14:59:58;18.20;52.80
24744;DHT22;12844;52.110;5.548;2023-03-01T15:02:27;18.20;53.00
24744;DHT22;12844;52.110;5.548;2023-03-01T15:04:59;18.10;53.00
24744;DHT22;12844;52.110;5.548;2023-03-01T15:07:29;18.20;53.10
24744;DHT22;12844;52.110;5.548;2023-03-01T15:09:55;18.20;53.00
24744;DHT22;12844;52.110;5.548;2023-03-01T15:14:53;18.20;52.90
24744;DHT22;12844;52.110;5.548;2023-03-01T15:17:34;18.10;53.00
24744;DHT22;12844;52.110;5.548;2023-03-01T15:20:03;18.20;53.10
24744;DHT22;12844;52.110;5.548;2023-03-01T15:22:29;18.10;52.90
24744;DHT22;12844;52.110;5.548;2023-03-01T15:24:55;18.30;52.20
24744;DHT22;12844;52.110;5.548;2023-03-01T15:27:23;18.50;52.00
24744;DHT22;12844;52.110;5.548;2023-03-01T15:30:00;18.40;52.00
24744;DHT22;12844;52.110;5.548;2023-03-01T15:32:35;18.50;51.90
24744;DHT22;12844;52.110;5.548;2023-03-01T15:35:38;18.70;51.40
24744;DHT22;12844;52.110;5.548;2023-03-01T15:38:24;18.80;51.20
24744;DHT22;12844;52.110;5.548;2023-03-01T15:40:51;18.80;51.20
24744;DHT22;12844;52.110;5.548;2023-03-01T15:43:40;18.80;51.20
24744;DHT22;12844;52.110;5.548;2023-03-01T15:46:18;18.80;51.00
24744;DHT22;12844;52.110;5.548;2023-03-01T15:48:46;18.90;51.20
24744;DHT22;12844;52.110;5.548;2023-03-01T15:51:13;18.80;51.40
24744;DHT22;12844;52.110;5.548;2023-03-01T15:53:40;18.80;51.40
24744;DHT22;12844;52.110;5.548;2023-03-01T15:56:05;18.80;51.40
24744;DHT22;12844;52.110;5.548;2023-03-01T15:58:32;18.80;51.60
24744;DHT22;12844;52.110;5.548;2023-03-01T16:00:58;18.90;51.70
24744;DHT22;12844;52.110;5.548;2023-03-01T16:03:24;19.00;51.50
24744;DHT22;12844;52.110;5.548;2023-03-01T16:05:50;19.00;51.50
24744;DHT22;12844;52.110;5.548;2023-03-01T16:08:17;19.00;51.50
24744;DHT22;12844;52.110;5.548;2023-03-01T16:10:43;19.00;51.50
24744;DHT22;12844;52.110;5.548;2023-03-01T16:13:09;19.00;51.60
24744;DHT22;12844;52.110;5.548;2023-03-01T16:15:35;19.00;51.60
24744;DHT22;12844;52.110;5.548;2023-03-01T16:18:01;19.00;51.70
24744;DHT22;12844;52.110;5.548;2023-03-01T16:20:28;19.10;51.70
24744;DHT22;12844;52.110;5.548;2023-03-01T16:22:54;19.10;51.70
24744;DHT22;12844;52.110;5.548;2023-03-01T16:25:20;19.10;51.70
24744;DHT22;12844;52.110;5.548;2023-03-01T16:27:49;19.10;51.70
24744;DHT22;12844;52.110;5.548;2023-03-01T16:30:17;19.10;51.70
24744;DHT22;12844;52.110;5.548;2023-03-01T16:32:45;19.10;51.80
24744;DHT22;12844;52.110;5.548;2023-03-01T16:35:12;19.00;51.80
24744;DHT22;12844;52.110;5.548;2023-03-01T16:37:38;19.00;51.70
24744;DHT22;12844;52.110;5.548;2023-03-01T16:40:06;19.00;51.70
24744;DHT22;12844;52.110;5.548;2023-03-01T16:42:36;19.00;51.70
24744;DHT22;12844;52.110;5.548;2023-03-01T16:45:03;19.00;51.80
24744;DHT22;12844;52.110;5.548;2023-03-01T16:47:29;19.00;52.00
24744;DHT22;12844;52.110;5.548;2023-03-01T16:49:55;19.00;51.90
24744;DHT22;12844;52.110;5.548;2023-03-01T16:52:21;19.00;51.90
24744;DHT22;12844;52.110;5.548;2023-03-01T16:54:47;19.00;52.00
24744;DHT22;12844;52.110;5.548;2023-03-01T16:57:13;19.00;52.00
24744;DHT22;12844;52.110;5.548;2023-03-01T16:59:39;18.90;52.00
24744;DHT22;12844;52.110;5.548;2023-03-01T17:02:05;18.90;52.00
24744;DHT22;12844;52.110;5.548;2023-03-01T17:04:32;18.90;52.00
24744;DHT22;12844;52.110;5.548;2023-03-01T17:06:57;18.90;52.00
24744;DHT22;12844;52.110;5.548;2023-03-01T17:09:23;18.90;52.00
24744;DHT22;12844;52.110;5.548;2023-03-01T17:11:49;18.90;52.00
24744;DHT22;12844;52.110;5.548;2023-03-01T17:14:15;18.90;52.00
24744;DHT22;12844;52.110;5.548;2023-03-01T17:16:41;18.90;52.00
24744;DHT22;12844;52.110;5.548;2023-03-01T17:19:07;18.90;52.00
24744;DHT22;12844;52.110;5.548;2023-03-01T17:21:33;18.90;52.00
24744;DHT22;12844;52.110;5.548;2023-03-01T17:23:59;19.00;51.90
24744;DHT22;12844;52.110;5.548;2023-03-01T17:26:25;19.00;51.80